Time;durP1;ratioP1;P1;durP2;ratioP2;P2;SDS_P1;SDS_P2;PMS_P1;PMS_P2;Temp;Humidity;BMP_temperature;BMP_pressure;BME280_temperature;BME280_humidity;BME280_pressure;Samples;Min_cycle;Max_cycle;Signal;HPM_P1;HPM_P2
2022/03/25 05:04:58;;;;;;;13.80;9.53;;;0.60;99.90;;;;;;5418092;23;20509;-78
2022/03/25 05:07:27;;;;;;;12.83;9.53;;;0.60;99.90;;;;;;5008007;28;20869;-78
2022/03/25 05:09:58;;;;;;;12.93;9.80;;;0.60;99.90;;;;;;5011665;28;20843;-77
2022/03/25 05:12:26;;;;;;;14.00;9.77;;;0.60;99.90;;;;;;5012143;28;20570;-78
2022/03/25 05:14:55;;;;;;;15.97;10.57;;;0.60;99.90;;;;;;5012046;28;20500;-78
2022/03/25 05:17:23;;;;;;;14.63;9.90;;;0.60;99.90;;;;;;5012286;28;20476;-77
2022/03/25 05:19:52;;;;;;;17.75;10.40;;;0.60;99.90;;;;;;5011781;28;20375;-79
2022/03/25 05:22:22;;;;;;;16.20;10.00;;;0.70;99.90;;;;;;5011986;28;20292;-76
2022/03/25 05:24:50;;;;;;;13.80;10.07;;;0.70;99.90;;;;;;5012250;28;20464;-79
2022/03/25 05:27:18;;;;;;;15.00;10.40;;;0.70;99.90;;;;;;5011637;28;20456;-78
2022/03/25 05:29:46;;;;;;;15.93;10.57;;;0.70;99.90;;;;;;5011831;28;20477;-77
2022/03/25 05:32:15;;;;;;;17.70;10.63;;;0.70;99.90;;;;;;4993359;28;20485;-77
2022/03/25 05:34:43;;;;;;;13.93;10.13;;;0.80;99.90;;;;;;5010675;28;20544;-79
2022/03/25 05:37:11;;;;;;;16.80;10.50;;;0.90;99.90;;;;;;5001741;28;20493;-80
2022/03/25 05:39:41;;;;;;;15.63;10.63;;;0.90;99.90;;;;;;5010546;28;20540;-78
2022/03/25 05:42:09;;;;;;;14.07;9.90;;;0.90;99.90;;;;;;5010499;28;20545;-78
2022/03/25 05:44:38;;;;;;;13.47;10.23;;;0.90;99.90;;;;;;5010718;28;20455;-78
2022/03/25 05:47:09;;;;;;;15.80;10.53;;;1.00;99.90;;;;;;5010919;28;20543;-75
2022/03/25 05:49:37;;;;;;;14.50;10.60;;;1.00;99.90;;;;;;5009940;28;20442;-79
2022/03/25 05:52:06;;;;;;;16.10;10.73;;;1.10;99.90;;;;;;5010384;28;20519;-74
2022/03/25 05:54:34;;;;;;;14.87;10.27;;;1.10;99.90;;;;;;5011121;28;20893;-76
2022/03/25 05:57:04;;;;;;;16.47;10.70;;;1.10;99.90;;;;;;5007004;28;20471;-78
2022/03/25 05:59:32;;;;;;;14.63;10.70;;;1.20;99.90;;;;;;5009041;28;20494;-78
2022/03/25 06:02:01;;;;;;;15.97;10.27;;;1.30;99.90;;;;;;5009442;28;20455;-77
2022/03/25 06:04:29;;;;;;;14.83;10.90;;;1.40;99.90;;;;;;5000418;28;20485;-76
2022/03/25 06:06:57;;;;;;;15.87;10.93;;;1.50;99.90;;;;;;4989897;28;20542;-77
2022/03/25 06:09:25;;;;;;;12.50;10.07;;;1.70;99.90;;;;;;4990400;28;20936;-78
2022/03/25 06:11:53;;;;;;;14.67;9.50;;;1.70;99.90;;;;;;4991192;28;20578;-77
2022/03/25 06:14:22;;;;;;;16.27;11.10;;;1.80;99.90;;;;;;4989391;28;20463;-78
2022/03/25 06:16:50;;;;;;;14.90;10.63;;;2.00;99.90;;;;;;4989566;28;20548;-76
2022/03/25 06:19:18;;;;;;;13.60;9.67;;;2.10;99.90;;;;;;4994108;28;20562;-78
2022/03/25 06:21:47;;;;;;;15.87;9.80;;;2.20;99.90;;;;;;4995002;28;20521;-78
2022/03/25 06:24:16;;;;;;;17.77;10.20;;;2.40;99.90;;;;;;4995052;28;20535;-78
2022/03/25 06:26:44;;;;;;;17.27;11.10;;;2.60;99.90;;;;;;4996368;28;20468;-79
2022/03/25 06:29:12;;;;;;;15.30;10.07;;;2.70;99.90;;;;;;4997864;28;20480;-77
2022/03/25 06:31:41;;;;;;;17.63;10.63;;;2.90;99.90;;;;;;4998105;28;20521;-74
2022/03/25 06:34:10;;;;;;;13.57;10.47;;;3.10;99.90;;;;;;4988121;28;21037;-77
2022/03/25 06:36:38;;;;;;;16.97;10.17;;;3.30;99.90;;;;;;4991234;28;20551;-78
2022/03/25 06:39:06;;;;;;;17.00;10.37;;;3.50;99.90;;;;;;4994980;28;20312;-75
2022/03/25 06:41:34;;;;;;;22.47;10.37;;;3.80;99.90;;;;;;4995620;28;20485;-76
2022/03/25 06:44:05;;;;;;;18.30;10.33;;;4.00;99.90;;;;;;4995084;28;20297;-76
2022/03/25 06:46:36;;;;;;;17.80;9.80;;;4.40;99.90;;;;;;4995456;28;20799;-77
2022/03/25 06:49:06;;;;;;;15.00;9.77;;;4.80;99.90;;;;;;4995397;28;20203;-75
2022/03/25 06:51:34;;;;;;;13.43;9.67;;;5.30;99.90;;;;;;4995385;28;20297;-76
2022/03/25 06:54:02;;;;;;;15.17;10.00;;;6.00;99.90;;;;;;4994565;28;20262;-76
2022/03/25 06:56:34;;;;;;;17.30;10.30;;;6.80;99.90;;;;;;4993949;28;20298;-77
2022/03/25 06:59:04;;;;;;;14.07;10.07;;;7.90;99.90;;;;;;4982705;28;20629;-74
2022/03/25 07:01:33;;;;;;;12.83;10.47;;;8.80;99.90;;;;;;4992867;28;20262;-77
2022/03/25 07:04:03;;;;;;;16.20;10.47;;;9.80;97.80;;;;;;4994335;28;20257;-77
2022/03/25 07:06:35;;;;;;;14.13;10.27;;;10.50;94.40;;;;;;4995933;28;20309;-76
2022/03/25 07:09:06;;;;;;;13.83;10.17;;;11.40;92.20;;;;;;4993831;28;20640;-75
2022/03/25 07:11:37;;;;;;;14.70;10.37;;;12.20;91.90;;;;;;4987033;28;20309;-77
2022/03/25 07:14:06;;;;;;;11.83;9.13;;;13.00;87.50;;;;;;4997811;28;20259;-79
2022/03/25 07:16:34;;;;;;;13.17;10.00;;;13.50;86.00;;;;;;4987930;28;20637;-76
2022/03/25 07:19:02;;;;;;;12.77;10.43;;;13.80;83.00;;;;;;4995899;28;20225;-77
2022/03/25 07:21:31;;;;;;;13.50;11.00;;;14.80;81.90;;;;;;4976997;28;20231;-78
2022/03/25 07:24:00;;;;;;;13.77;10.57;;;15.60;75.30;;;;;;4987281;28;20234;-76
2022/03/25 07:26:28;;;;;;;12.87;11.43;;;15.80;70.10;;;;;;4993606;28;20245;-78
2022/03/25 07:28:56;;;;;;;12.50;11.20;;;15.70;68.70;;;;;;4998713;28;20206;-77
2022/03/25 07:31:28;;;;;;;15.97;11.37;;;15.70;68.10;;;;;;4990325;28;20301;-76
2022/03/25 07:33:56;;;;;;;12.23;10.93;;;16.30;65.30;;;;;;5009126;28;20221;-75
2022/03/25 07:36:25;;;;;;;13.03;11.47;;;17.40;64.40;;;;;;5001592;28;20734;-76
2022/03/25 07:38:54;;;;;;;14.50;11.93;;;17.10;61.90;;;;;;4990517;28;20242;-77
2022/03/25 07:41:22;;;;;;;15.83;11.40;;;17.10;59.80;;;;;;4992157;28;20309;-78
2022/03/25 07:43:52;;;;;;;16.43;11.43;;;17.80;59.30;;;;;;4992094;28;20230;-76
2022/03/25 07:46:20;;;;;;;14.40;12.90;;;17.60;58.70;;;;;;4991838;28;20202;-77
2022/03/25 07:48:50;;;;;;;15.87;12.93;;;17.80;57.20;;;;;;4991850;28;20246;-76
2022/03/25 07:51:18;;;;;;;14.30;11.90;;;18.40;55.40;;;;;;4993378;28;20206;-78
2022/03/25 07:53:46;;;;;;;14.67;12.80;;;18.40;55.20;;;;;;4993172;28;20330;-78
2022/03/25 07:56:16;;;;;;;16.00;13.63;;;18.40;55.50;;;;;;4993287;28;20208;-74
2022/03/25 07:58:44;;;;;;;19.07;13.10;;;18.90;52.80;;;;;;4993121;28;20213;-74
2022/03/25 08:01:13;;;;;;;16.73;13.50;;;19.60;53.30;;;;;;4992665;28;20684;-77
2022/03/25 08:03:41;;;;;;;16.20;13.20;;;19.40;52.20;;;;;;4992897;28;20206;-76
2022/03/25 08:06:13;;;;;;;16.87;14.07;;;19.80;52.90;;;;;;4993712;28;20194;-77
2022/03/25 08:08:41;;;;;;;17.42;13.65;;;20.30;52.90;;;;;;4993625;28;20201;-78
2022/03/25 08:11:09;;;;;;;19.15;14.05;;;21.00;50.70;;;;;;4993386;28;20218;-76
2022/03/25 08:13:40;;;;;;;15.75;13.70;;;21.40;49.90;;;;;;4993346;28;20226;-76
2022/03/25 08:16:08;;;;;;;15.68;13.32;;;21.90;48.60;;;;;;4993358;28;20230;-76
2022/03/25 08:18:36;;;;;;;18.70;15.15;;;21.80;49.10;;;;;;4993322;28;20286;-75
2022/03/25 08:21:05;;;;;;;15.57;13.98;;;21.50;47.20;;;;;;4993211;28;20253;-76
2022/03/25 08:29:06;;;;;;;16.38;14.45;;;21.60;46.60;;;;;;4993021;28;20190;-76
2022/03/25 08:31:45;;;;;;;15.77;13.50;;;22.90;45.80;;;;;;4993094;28;20229;-75
2022/03/25 08:34:15;;;;;;;16.27;14.60;;;22.60;47.70;;;;;;4993055;28;20209;-75
2022/03/25 08:36:45;;;;;;;16.92;15.20;;;22.70;46.80;;;;;;4993304;28;20245;-75
2022/03/25 08:39:13;;;;;;;18.75;14.77;;;22.10;46.30;;;;;;4992001;28;20264;-75
2022/03/25 08:41:42;;;;;;;17.75;14.82;;;21.40;49.20;;;;;;4992972;28;20211;-75
2022/03/25 08:44:12;;;;;;;16.88;15.23;;;21.40;49.10;;;;;;4992861;28;20269;-75
2022/03/25 08:46:40;;;;;;;17.08;15.27;;;22.10;49.60;;;;;;4993094;28;20652;-76
2022/03/25 08:49:11;;;;;;;18.83;15.23;;;22.80;46.80;;;;;;4992687;28;20234;-74
2022/03/25 08:51:39;;;;;;;17.50;15.63;;;23.90;45.70;;;;;;4993077;28;20309;-76
2022/03/25 08:54:09;;;;;;;25.05;16.42;;;24.00;45.10;;;;;;4992548;28;20229;-75
2022/03/25 08:56:38;;;;;;;18.35;15.35;;;23.70;46.20;;;;;;4992903;28;20198;-75
2022/03/25 08:59:07;;;;;;;20.80;16.63;;;23.80;45.30;;;;;;4993534;28;20214;-74
2022/03/25 09:01:38;;;;;;;18.10;16.10;;;23.00;45.70;;;;;;4993089;28;20209;-74
2022/03/25 09:04:08;;;;;;;18.88;16.27;;;23.20;45.30;;;;;;4993407;28;20317;-75
2022/03/25 09:06:39;;;;;;;18.58;16.77;;;24.00;44.30;;;;;;4993301;28;20241;-74
2022/03/25 09:09:07;;;;;;;18.92;16.95;;;23.40;43.60;;;;;;4994185;28;20210;-74
2022/03/25 09:11:35;;;;;;;19.70;16.60;;;23.60;43.60;;;;;;4993797;28;20214;-74
2022/03/25 09:14:05;;;;;;;19.75;16.27;;;22.80;43.80;;;;;;4994331;28;20276;-75
2022/03/25 09:16:34;;;;;;;19.10;17.20;;;23.40;46.40;;;;;;4993193;28;20297;-76
2022/03/25 09:19:04;;;;;;;19.45;17.13;;;24.20;44.20;;;;;;4993397;28;20199;-74
2022/03/25 09:21:33;;;;;;;20.45;17.02;;;25.00;44.10;;;;;;4993954;28;20270;-75
2022/03/25 09:24:01;;;;;;;21.92;18.38;;;25.10;42.60;;;;;;4993263;28;20280;-77
2022/03/25 09:26:34;;;;;;;19.30;17.40;;;24.00;43.70;;;;;;4993361;28;20202;-76
2022/03/25 09:29:02;;;;;;;18.73;16.73;;;24.40;42.50;;;;;;4992582;28;20214;-74
2022/03/25 09:31:30;;;;;;;20.85;18.35;;;24.60;42.50;;;;;;4992747;28;20218;-75
2022/03/25 09:36:59;;;;;;;19.88;17.77;;;24.90;43.10;;;;;;4992709;28;20213;-75
2022/03/25 09:39:27;;;;;;;19.63;17.63;;;25.20;42.10;;;;;;4992136;28;20214;-75
2022/03/25 09:41:55;;;;;;;25.95;17.85;;;24.10;44.60;;;;;;4992619;28;20245;-77
2022/03/25 09:44:23;;;;;;;21.80;18.25;;;24.20;43.90;;;;;;4992936;28;20973;-77
2022/03/25 09:46:52;;;;;;;20.48;18.20;;;23.00;44.00;;;;;;4997418;28;20402;-76
2022/03/25 09:49:21;;;;;;;25.17;18.58;;;23.80;45.90;;;;;;4998876;28;20253;-76
2022/03/25 09:51:49;;;;;;;20.60;18.50;;;23.60;43.20;;;;;;4993868;28;20284;-78
2022/03/25 09:54:18;;;;;;;20.65;18.60;;;23.20;46.30;;;;;;4995517;28;20270;-76
2022/03/25 09:56:48;;;;;;;21.00;18.85;;;24.80;43.20;;;;;;5003212;28;20217;-76
2022/03/25 09:59:19;;;;;;;21.33;18.88;;;25.30;43.10;;;;;;4994568;28;20762;-77
2022/03/25 10:01:48;;;;;;;20.83;18.63;;;24.50;43.50;;;;;;4993126;28;20237;-77
2022/03/25 10:04:40;;;;;;;20.55;18.42;;;24.00;44.00;;;;;;4992753;28;20555;-75
2022/03/25 10:07:19;;;;;;;20.77;18.60;;;24.70;43.10;;;;;;4992384;28;20801;-77
2022/03/25 10:09:48;;;;;;;22.52;18.00;;;24.30;43.00;;;;;;4992489;28;20609;-75
2022/03/25 10:12:21;;;;;;;22.45;18.27;;;25.00;43.20;;;;;;4992237;28;20280;-76
2022/03/25 10:14:51;;;;;;;23.60;18.13;;;25.30;43.60;;;;;;4992012;28;20678;-75
2022/03/25 10:17:20;;;;;;;20.40;18.15;;;24.50;41.60;;;;;;4992113;28;20214;-76
2022/03/25 10:19:52;;;;;;;20.98;18.35;;;24.10;43.10;;;;;;4992323;28;20841;-75
2022/03/25 10:22:22;;;;;;;24.27;19.67;;;24.60;42.60;;;;;;4992228;28;20234;-75
2022/03/25 10:24:52;;;;;;;20.25;18.08;;;25.20;42.10;;;;;;4992364;28;20232;-76
2022/03/25 10:27:22;;;;;;;22.80;19.02;;;25.60;41.70;;;;;;4991985;28;20831;-75
2022/03/25 10:29:54;;;;;;;22.45;18.70;;;24.30;41.20;;;;;;4991685;28;20727;-77
2022/03/25 10:32:26;;;;;;;20.15;18.05;;;23.00;43.80;;;;;;4991759;28;20249;-79
2022/03/25 10:35:06;;;;;;;20.55;18.35;;;23.20;42.40;;;;;;4992345;28;20203;-75
2022/03/25 10:37:35;;;;;;;24.88;17.98;;;23.40;42.40;;;;;;4992282;28;20636;-76
2022/03/25 10:40:06;;;;;;;21.38;18.98;;;23.80;40.20;;;;;;4991875;28;20668;-76
2022/03/25 10:42:36;;;;;;;20.70;18.60;;;22.90;41.00;;;;;;4992186;28;20625;-76
2022/03/25 10:45:26;;;;;;;24.00;17.05;;;23.40;41.20;;;;;;4991915;28;20305;-75
2022/03/25 10:48:12;;;;;;;25.65;17.52;;;23.70;40.70;;;;;;4992027;28;20230;-76
2022/03/25 10:53:38;;;;;;;22.70;17.90;;;24.30;41.40;;;;;;5029100;28;20621;-76
2022/03/25 10:56:10;;;;;;;23.52;17.75;;;23.40;42.00;;;;;;5029512;28;20240;-76
2022/03/25 10:58:38;;;;;;;21.02;17.35;;;23.40;42.80;;;;;;5029660;28;20220;-77
2022/03/25 11:01:07;;;;;;;19.60;17.55;;;23.80;42.10;;;;;;5029054;28;20208;-76
2022/03/25 11:03:36;;;;;;;22.55;17.17;;;24.00;41.30;;;;;;5029774;28;20247;-77
2022/03/25 11:06:05;;;;;;;22.77;17.52;;;23.70;40.80;;;;;;5029238;28;20242;-76
2022/03/25 11:08:37;;;;;;;21.48;17.48;;;23.40;42.40;;;;;;5029112;28;20271;-77
2022/03/25 11:11:05;;;;;;;20.73;17.30;;;24.20;41.70;;;;;;5029083;28;20255;-78
2022/03/25 11:13:33;;;;;;;20.30;17.63;;;23.60;41.90;;;;;;5022712;28;20229;-74
2022/03/25 11:16:03;;;;;;;18.77;16.70;;;24.50;40.30;;;;;;5009793;28;20206;-76
2022/03/25 11:18:33;;;;;;;19.63;17.33;;;23.80;40.90;;;;;;5009181;28;20225;-77
2022/03/25 11:21:02;;;;;;;24.10;17.10;;;24.10;41.20;;;;;;5027092;28;20295;-76
2022/03/25 11:23:37;;;;;;;22.52;17.77;;;24.20;41.10;;;;;;5028482;28;20300;-77
2022/03/25 11:26:08;;;;;;;20.17;17.08;;;23.90;39.50;;;;;;5028836;28;20231;-77
2022/03/25 11:28:37;;;;;;;19.67;17.38;;;24.10;40.20;;;;;;5028529;28;20280;-75
2022/03/25 11:31:08;;;;;;;23.23;18.02;;;24.10;42.10;;;;;;5028369;28;20212;-75
2022/03/25 11:34:10;;;;;;;22.48;18.13;;;24.00;41.90;;;;;;5029380;28;20224;-76
2022/03/25 11:36:41;;;;;;;18.75;16.77;;;23.90;41.30;;;;;;5028917;28;20186;-76
2022/03/25 11:39:22;;;;;;;18.55;16.65;;;24.00;41.80;;;;;;5028466;28;20212;-76
2022/03/25 11:41:54;;;;;;;20.75;17.85;;;24.60;40.00;;;;;;5028556;28;20205;-76
2022/03/25 11:44:26;;;;;;;20.73;17.00;;;24.00;41.30;;;;;;5028440;28;20255;-77
2022/03/25 11:47:14;;;;;;;18.83;17.00;;;23.90;43.30;;;;;;5028939;28;20235;-75
2022/03/25 11:49:43;;;;;;;19.58;17.60;;;23.80;41.60;;;;;;5027996;28;20721;-75
2022/03/25 11:52:29;;;;;;;18.55;16.60;;;23.50;41.00;;;;;;5036814;28;20232;-76
2022/03/25 11:54:59;;;;;;;18.80;16.20;;;23.30;41.40;;;;;;5048549;28;20208;-75
2022/03/25 11:57:30;;;;;;;18.57;16.57;;;22.80;42.70;;;;;;5048827;28;20282;-77
2022/03/25 11:59:59;;;;;;;18.80;16.80;;;22.80;41.40;;;;;;5047808;28;20702;-76
2022/03/25 12:02:33;;;;;;;19.67;17.40;;;22.20;41.00;;;;;;5048282;28;20200;-77
2022/03/25 12:05:03;;;;;;;19.87;17.40;;;22.20;41.60;;;;;;5034637;28;20193;-75
2022/03/25 12:07:31;;;;;;;19.10;17.10;;;22.20;43.10;;;;;;5035484;28;20232;-74
2022/03/25 12:09:59;;;;;;;22.30;17.70;;;21.60;43.00;;;;;;5034592;28;20209;-76
2022/03/25 12:12:55;;;;;;;18.20;16.33;;;21.40;43.90;;;;;;5035072;28;20232;-74
2022/03/25 12:15:45;;;;;;;18.73;15.47;;;21.50;42.90;;;;;;5035160;28;20209;-76
2022/03/25 12:18:49;;;;;;;19.83;15.80;;;21.10;39.10;;;;;;5035337;28;20252;-75
2022/03/25 12:21:43;;;;;;;19.13;17.20;;;21.10;40.70;;;;;;5036094;28;20284;-76
2022/03/25 12:24:19;;;;;;;19.07;16.13;;;20.70;41.90;;;;;;5039727;28;20201;-74
2022/03/25 12:26:55;;;;;;;19.23;17.17;;;20.50;42.20;;;;;;5035581;28;20647;-74
2022/03/25 12:29:31;;;;;;;19.03;16.73;;;20.70;42.00;;;;;;5035519;28;20216;-76
2022/03/25 12:32:08;;;;;;;17.13;15.33;;;21.00;41.10;;;;;;5035947;28;20198;-75
2022/03/25 12:34:45;;;;;;;25.60;16.70;;;21.10;42.90;;;;;;5035216;28;20201;-75
2022/03/25 12:37:21;;;;;;;19.87;16.37;;;20.80;42.60;;;;;;5036253;28;20382;-74
2022/03/25 12:39:49;;;;;;;20.20;16.43;;;21.10;41.60;;;;;;5035873;28;20228;-75
2022/03/25 12:42:17;;;;;;;20.93;17.87;;;21.10;41.80;;;;;;5035365;28;20209;-75
2022/03/25 12:44:53;;;;;;;18.97;16.97;;;20.90;41.80;;;;;;5035062;28;20255;-74
2022/03/25 12:47:30;;;;;;;25.43;17.80;;;20.90;41.40;;;;;;5035884;28;20296;-74
2022/03/25 12:49:59;;;;;;;21.57;16.73;;;20.40;40.80;;;;;;5034468;28;20192;-75
2022/03/25 12:52:27;;;;;;;22.53;16.90;;;20.50;41.50;;;;;;5033727;28;20483;-75
2022/03/25 12:55:05;;;;;;;18.83;16.30;;;20.70;41.90;;;;;;5033792;28;20255;-74
2022/03/25 12:57:34;;;;;;;20.07;15.47;;;20.60;43.00;;;;;;5034602;28;20272;-74
2022/03/25 13:00:06;;;;;;;17.53;15.03;;;20.60;41.10;;;;;;5035221;28;20270;-75
2022/03/25 13:02:35;;;;;;;18.50;15.70;;;20.80;42.20;;;;;;5034428;28;20610;-75
2022/03/25 13:05:10;;;;;;;17.20;15.10;;;20.70;40.90;;;;;;5033819;28;20569;-76
2022/03/25 13:07:45;;;;;;;18.90;15.57;;;20.70;41.20;;;;;;5033686;28;20201;-76
2022/03/25 13:10:13;;;;;;;19.77;16.03;;;20.70;42.10;;;;;;5034093;28;20326;-76
2022/03/25 13:12:43;;;;;;;25.03;16.70;;;20.50;43.10;;;;;;5033643;28;20290;-77
2022/03/25 13:15:14;;;;;;;17.83;15.93;;;20.80;43.60;;;;;;5032472;28;20617;-74
2022/03/25 13:17:44;;;;;;;17.47;15.57;;;20.70;42.60;;;;;;5033635;28;20209;-75
2022/03/25 13:20:16;;;;;;;18.83;15.93;;;20.70;42.60;;;;;;5032957;28;20704;-75
2022/03/25 13:22:55;;;;;;;21.13;17.20;;;20.70;42.50;;;;;;5042414;28;20239;-75
2022/03/25 13:25:28;;;;;;;20.70;16.80;;;20.70;42.90;;;;;;5034253;28;20296;-76
2022/03/25 13:27:58;;;;;;;16.50;14.83;;;20.80;43.30;;;;;;5033375;28;20197;-75
2022/03/25 13:30:28;;;;;;;20.57;17.27;;;20.80;41.70;;;;;;5033673;28;20451;-76
2022/03/25 13:33:02;;;;;;;20.40;17.50;;;20.60;42.40;;;;;;5033283;28;20647;-74
2022/03/25 13:35:49;;;;;;;17.57;15.77;;;20.60;42.40;;;;;;5033385;28;20209;-77
2022/03/25 13:38:19;;;;;;;22.23;17.63;;;20.50;42.80;;;;;;5033328;28;20197;-77
2022/03/25 13:40:48;;;;;;;19.83;16.50;;;20.20;42.40;;;;;;5033613;28;20666;-76
2022/03/25 13:43:23;;;;;;;18.00;16.10;;;20.30;42.70;;;;;;5033108;28;20185;-76
2022/03/25 13:46:01;;;;;;;19.47;15.97;;;20.30;41.40;;;;;;5033268;28;20209;-76
2022/03/25 13:48:37;;;;;;;20.60;16.57;;;20.60;41.90;;;;;;5032897;28;20251;-75
2022/03/25 13:51:16;;;;;;;17.80;15.63;;;20.70;42.70;;;;;;5032616;28;20658;-76
2022/03/25 13:53:44;;;;;;;19.90;15.87;;;20.60;41.50;;;;;;5033018;28;20320;-75
2022/03/25 13:56:14;;;;;;;20.47;16.67;;;20.50;41.20;;;;;;5032873;28;20263;-75
2022/03/25 13:58:48;;;;;;;17.60;14.77;;;20.50;41.20;;;;;;5033020;28;20247;-74
2022/03/25 14:01:33;;;;;;;17.60;15.70;;;20.50;40.50;;;;;;5032958;28;20197;-75
2022/03/25 14:04:06;;;;;;;19.17;15.30;;;20.60;39.20;;;;;;5032297;28;20243;-75
2022/03/25 14:06:37;;;;;;;20.53;15.07;;;20.50;39.70;;;;;;5032682;28;20216;-75
2022/03/25 14:09:31;;;;;;;18.37;15.20;;;20.60;40.20;;;;;;5032341;28;20208;-75
2022/03/25 14:12:01;;;;;;;20.50;15.90;;;20.50;38.50;;;;;;5026225;28;20224;-74
2022/03/25 14:14:32;;;;;;;17.80;15.60;;;20.40;39.10;;;;;;5032308;28;20590;-75
2022/03/25 14:17:08;;;;;;;18.27;15.10;;;20.30;39.40;;;;;;5032645;28;20557;-74
2022/03/25 14:19:37;;;;;;;17.67;15.77;;;20.20;39.60;;;;;;5032507;28;20188;-76
2022/03/25 14:22:07;;;;;;;23.50;17.07;;;19.80;39.00;;;;;;5032350;28;20208;-76
2022/03/25 14:24:37;;;;;;;18.60;16.10;;;19.70;38.30;;;;;;5032196;28;20193;-76
2022/03/25 14:27:08;;;;;;;19.80;15.90;;;19.70;39.40;;;;;;5032213;28;20303;-76
2022/03/25 14:29:36;;;;;;;20.43;15.67;;;19.70;40.40;;;;;;5031911;28;20205;-75
2022/03/25 14:32:07;;;;;;;17.53;15.67;;;19.70;38.80;;;;;;5032359;28;20300;-75
2022/03/25 14:34:37;;;;;;;19.57;16.57;;;19.90;40.00;;;;;;5032494;28;20255;-75
2022/03/25 14:37:07;;;;;;;17.90;16.00;;;19.80;39.40;;;;;;5032074;28;20228;-76
2022/03/25 14:39:39;;;;;;;19.57;15.97;;;19.80;38.60;;;;;;5031624;28;20294;-74
2022/03/25 14:42:07;;;;;;;18.17;16.27;;;19.80;38.80;;;;;;5031155;28;20233;-75
2022/03/25 14:44:36;;;;;;;17.57;15.53;;;19.80;40.10;;;;;;5032269;28;20236;-74
2022/03/25 14:47:11;;;;;;;18.23;15.13;;;19.70;39.40;;;;;;5032447;28;20200;-74
2022/03/25 14:49:41;;;;;;;17.73;14.77;;;19.60;39.00;;;;;;5032054;28;20205;-76
2022/03/25 14:52:10;;;;;;;16.93;14.90;;;19.70;40.00;;;;;;5031743;28;20241;-74
2022/03/25 14:54:39;;;;;;;17.50;15.70;;;19.60;40.30;;;;;;5031466;28;20224;-75
2022/03/25 14:57:09;;;;;;;18.43;15.53;;;19.60;41.90;;;;;;5032196;28;20232;-75
2022/03/25 14:59:39;;;;;;;18.03;16.07;;;19.70;40.90;;;;;;5031825;28;20299;-76
2022/03/25 15:02:08;;;;;;;19.07;16.17;;;19.60;41.00;;;;;;5031403;28;20244;-75
2022/03/25 15:04:39;;;;;;;18.33;16.20;;;19.40;40.90;;;;;;5031621;28;20296;-77
2022/03/25 15:07:08;;;;;;;20.73;15.80;;;19.30;40.90;;;;;;5031620;28;20205;-77
2022/03/25 15:09:37;;;;;;;18.70;15.40;;;19.50;41.60;;;;;;5031408;28;20235;-74
2022/03/25 15:12:06;;;;;;;19.07;15.97;;;19.40;41.00;;;;;;5031642;28;20209;-76
2022/03/25 15:14:34;;;;;;;17.73;15.47;;;19.40;41.20;;;;;;5031410;28;20228;-76
2022/03/25 15:17:03;;;;;;;19.17;15.87;;;19.40;42.20;;;;;;5031663;28;20219;-76
2022/03/25 15:19:31;;;;;;;20.60;16.10;;;19.50;42.20;;;;;;5029236;28;20236;-75
2022/03/25 15:22:01;;;;;;;20.00;16.57;;;19.50;41.00;;;;;;5020593;28;20252;-75
2022/03/25 15:24:29;;;;;;;20.93;16.20;;;19.50;41.20;;;;;;5031427;28;20622;-75
2022/03/25 15:26:58;;;;;;;19.70;16.93;;;19.50;42.40;;;;;;5014452;28;20247;-75
2022/03/25 15:34:57;;;;;;;22.30;16.70;;;19.20;42.90;;;;;;5011806;28;20213;-75
2022/03/25 15:37:48;;;;;;;18.97;16.37;;;19.00;42.60;;;;;;5016505;28;20293;-76
2022/03/25 15:40:17;;;;;;;19.87;16.20;;;18.90;43.50;;;;;;5034510;28;20263;-76
2022/03/25 15:42:45;;;;;;;19.87;16.17;;;18.80;43.10;;;;;;5035209;28;20219;-76
2022/03/25 15:45:14;;;;;;;20.33;16.80;;;18.60;42.30;;;;;;5035253;28;20752;-76
2022/03/25 15:47:43;;;;;;;18.47;16.47;;;18.50;42.50;;;;;;5035518;28;20205;-78
2022/03/25 15:50:11;;;;;;;19.47;15.83;;;18.40;42.20;;;;;;5040159;28;20216;-77
2022/03/25 15:52:39;;;;;;;19.53;15.97;;;18.40;42.20;;;;;;5037177;28;20287;-76
2022/03/25 15:55:10;;;;;;;19.83;16.00;;;18.30;42.00;;;;;;5034832;28;20319;-77
2022/03/25 15:57:51;;;;;;;17.90;15.80;;;18.30;43.50;;;;;;5034647;28;20276;-75
2022/03/25 16:00:21;;;;;;;18.30;16.40;;;18.20;42.70;;;;;;5034250;28;20639;-77
2022/03/25 16:02:50;;;;;;;17.87;15.23;;;18.20;45.90;;;;;;5034813;28;20205;-77
2022/03/25 16:05:19;;;;;;;19.07;16.07;;;18.20;45.10;;;;;;5035366;28;20236;-75
2022/03/25 16:07:47;;;;;;;17.83;15.70;;;18.00;42.80;;;;;;5034980;28;20219;-74
2022/03/25 16:10:18;;;;;;;20.57;16.57;;;17.90;42.70;;;;;;5034191;28;20216;-74
2022/03/25 16:12:47;;;;;;;19.53;14.93;;;17.80;43.70;;;;;;5034430;28;20263;-76
2022/03/25 16:15:17;;;;;;;17.93;14.53;;;17.70;43.10;;;;;;5034251;28;20585;-76
2022/03/25 16:17:45;;;;;;;20.07;15.73;;;17.60;44.40;;;;;;5034238;28;20635;-75
2022/03/25 16:20:13;;;;;;;18.80;15.23;;;17.50;43.60;;;;;;5034462;28;20216;-75
2022/03/25 16:22:42;;;;;;;23.13;14.50;;;17.40;43.00;;;;;;5034049;28;20288;-74
2022/03/25 16:25:11;;;;;;;19.47;15.23;;;17.30;43.50;;;;;;5033587;28;20747;-76
2022/03/25 16:27:41;;;;;;;18.17;14.97;;;17.20;44.60;;;;;;5033914;28;20201;-75
2022/03/25 16:30:11;;;;;;;19.53;14.80;;;17.10;43.70;;;;;;5033980;28;20209;-74
2022/03/25 16:32:40;;;;;;;18.80;15.90;;;17.00;44.40;;;;;;5034869;28;20212;-75
2022/03/25 16:35:10;;;;;;;20.33;14.93;;;17.00;44.20;;;;;;5034218;28;20233;-75
2022/03/25 16:37:41;;;;;;;18.10;14.17;;;16.90;44.60;;;;;;5033872;28;20288;-74
2022/03/25 16:40:14;;;;;;;17.43;14.87;;;16.80;44.70;;;;;;5033721;28;20190;-74
2022/03/25 16:42:44;;;;;;;22.50;14.93;;;16.70;45.90;;;;;;5034318;28;20196;-76
2022/03/25 16:45:13;;;;;;;18.60;15.10;;;16.60;45.50;;;;;;5034467;28;20212;-75
2022/03/25 16:47:44;;;;;;;17.87;14.97;;;16.50;46.10;;;;;;5034122;28;20255;-74
2022/03/25 16:50:13;;;;;;;17.43;14.60;;;16.30;46.80;;;;;;5030811;28;20232;-74
2022/03/25 16:52:43;;;;;;;19.77;15.23;;;16.20;47.00;;;;;;5024210;28;20296;-74
2022/03/25 16:55:13;;;;;;;20.57;15.37;;;16.10;47.20;;;;;;5033443;28;20229;-75
2022/03/25 16:57:43;;;;;;;21.63;15.97;;;16.00;47.00;;;;;;5033346;28;20247;-74
2022/03/25 17:00:14;;;;;;;19.70;15.37;;;15.80;47.90;;;;;;5032651;28;20744;-74
2022/03/25 17:02:43;;;;;;;19.53;14.30;;;15.70;47.10;;;;;;5033437;28;20231;-74
2022/03/25 17:05:11;;;;;;;19.03;14.47;;;15.60;47.20;;;;;;5032842;28;20209;-74
2022/03/25 17:07:43;;;;;;;20.50;14.40;;;15.50;47.60;;;;;;5033565;28;20282;-74
2022/03/25 17:10:13;;;;;;;17.43;13.30;;;15.30;47.40;;;;;;5014609;28;20237;-75
2022/03/25 17:12:43;;;;;;;16.83;14.00;;;15.20;47.60;;;;;;5031182;28;20581;-76
2022/03/25 17:15:11;;;;;;;16.07;13.73;;;15.10;48.30;;;;;;5031497;28;20221;-75
2022/03/25 17:17:42;;;;;;;17.03;13.13;;;14.90;48.60;;;;;;5032433;28;20610;-75
2022/03/25 17:20:11;;;;;;;16.30;13.23;;;14.70;49.00;;;;;;5032418;28;20229;-76
2022/03/25 17:22:40;;;;;;;23.33;14.30;;;14.60;49.00;;;;;;5032868;28;20251;-75
2022/03/25 17:25:09;;;;;;;19.27;13.67;;;14.50;49.60;;;;;;5032054;28;20244;-76
2022/03/25 17:27:37;;;;;;;15.80;13.13;;;14.30;49.80;;;;;;5032902;28;20318;-75
2022/03/25 17:30:08;;;;;;;21.33;13.77;;;14.20;49.50;;;;;;5032505;28;20239;-77
2022/03/25 17:32:36;;;;;;;18.67;14.37;;;14.10;50.10;;;;;;5030408;28;20335;-77
2022/03/25 17:35:05;;;;;;;19.20;14.27;;;14.00;50.30;;;;;;5032521;28;20263;-76
2022/03/25 17:37:34;;;;;;;17.70;14.77;;;13.80;51.00;;;;;;5032716;28;20759;-76
2022/03/25 17:40:02;;;;;;;23.30;15.00;;;13.70;51.30;;;;;;5032097;28;20700;-76
2022/03/25 17:42:30;;;;;;;17.57;13.37;;;13.50;51.10;;;;;;5032660;28;20240;-76
2022/03/25 17:44:59;;;;;;;17.23;13.97;;;13.40;51.30;;;;;;5032194;28;20248;-76
2022/03/25 17:47:29;;;;;;;19.63;14.13;;;13.30;51.60;;;;;;5032362;28;20208;-75
2022/03/25 17:49:57;;;;;;;20.23;14.70;;;13.20;52.00;;;;;;5032036;28;20667;-77
2022/03/25 17:52:25;;;;;;;25.37;15.93;;;13.10;52.30;;;;;;5031921;28;20616;-76
2022/03/25 17:54:53;;;;;;;21.77;15.97;;;13.00;52.70;;;;;;5031488;28;20692;-77
2022/03/25 17:57:21;;;;;;;20.83;15.90;;;12.90;52.70;;;;;;5031834;28;20259;-76
2022/03/25 17:59:49;;;;;;;23.97;15.30;;;12.80;52.90;;;;;;5032071;28;20211;-77
2022/03/25 18:02:17;;;;;;;21.17;15.70;;;12.70;52.80;;;;;;5031757;28;20247;-76
2022/03/25 18:04:47;;;;;;;24.67;16.80;;;12.60;53.20;;;;;;5032134;28;20201;-76
2022/03/25 18:07:15;;;;;;;26.33;16.20;;;12.50;53.70;;;;;;5031898;28;20228;-76